Time;durP1;ratioP1;P1;durP2;ratioP2;P2;SDS_P1;SDS_P2;PMS_P1;PMS_P2;Temp;Humidity;BMP_temperature;BMP_pressure;BME280_temperature;BME280_humidity;BME280_pressure;Samples;Min_cycle;Max_cycle;Signal;HPM_P1;HPM_P2
2021/10/11 00:01:30;;;;;;;20.58;10.57;;;;;;;16.41;62.54;102547.28;4932653;28;124491;-70
2021/10/11 00:03:58;;;;;;;19.60;9.57;;;;;;;16.43;62.45;102545.41;4936748;28;119066;-70
2021/10/11 00:06:25;;;;;;;22.88;9.52;;;;;;;16.45;62.48;102527.47;4936931;28;118911;-70
2021/10/11 00:08:52;;;;;;;16.25;7.90;;;;;;;16.47;62.54;102525.59;4933707;28;124166;-70
2021/10/11 00:11:19;;;;;;;16.20;8.18;;;;;;;16.48;62.53;102532.72;4938318;28;124063;-70
2021/10/11 00:13:46;;;;;;;14.35;7.53;;;;;;;16.51;62.62;102532.56;4925068;28;118549;-70
2021/10/11 00:16:16;;;;;;;15.35;7.35;;;;;;;16.53;62.61;102544.06;4928085;28;118593;-70
2021/10/11 00:18:44;;;;;;;15.40;7.18;;;;;;;16.57;62.60;102549.28;4928140;28;124344;-70
2021/10/11 00:21:12;;;;;;;13.55;6.60;;;;;;;16.59;62.66;102544.72;4933979;28;124029;-70
2021/10/11 00:23:39;;;;;;;13.70;6.40;;;;;;;16.60;62.70;102546.50;4931772;28;119992;-70
2021/10/11 00:26:06;;;;;;;13.23;5.72;;;;;;;16.62;62.67;102539.25;4933138;28;119019;-70
2021/10/11 00:28:33;;;;;;;11.55;5.97;;;;;;;16.65;62.71;102533.75;4932500;28;124176;-70
2021/10/11 00:31:00;;;;;;;12.95;5.88;;;;;;;16.66;62.68;102535.50;4931802;28;123643;-70
2021/10/11 00:33:27;;;;;;;11.75;5.63;;;;;;;16.68;62.53;102539.00;4936986;28;118557;-70
2021/10/11 00:35:55;;;;;;;10.70;5.28;;;;;;;16.70;62.55;102547.81;4932640;28;118926;-70
2021/10/11 00:38:22;;;;;;;10.10;5.20;;;;;;;16.71;62.36;102545.09;4932411;28;124806;-70
2021/10/11 00:40:49;;;;;;;12.50;5.18;;;;;;;16.72;62.43;102551.28;4911844;28;122830;-70
2021/10/11 00:43:16;;;;;;;11.68;5.22;;;;;;;16.73;62.46;102547.69;4925726;28;119876;-70
2021/10/11 00:45:43;;;;;;;13.45;5.07;;;;;;;16.75;62.42;102551.16;4929069;28;119726;-70
2021/10/11 00:48:10;;;;;;;10.77;4.95;;;;;;;16.76;62.23;102558.25;4935942;28;124002;-70
2021/10/11 00:50:37;;;;;;;7.82;4.72;;;;;;;16.76;62.10;102552.03;4932114;28;123127;-71
2021/10/11 00:53:04;;;;;;;8.73;4.72;;;;;;;16.77;62.50;102548.44;4929022;28;119397;-70
2021/10/11 00:55:32;;;;;;;10.38;5.13;;;;;;;16.76;62.36;102547.53;4933243;28;118889;-70
2021/10/11 00:57:59;;;;;;;10.23;5.20;;;;;;;16.77;62.48;102543.09;4916364;28;122875;-70
2021/10/11 01:00:26;;;;;;;8.18;4.88;;;;;;;16.77;62.52;102543.94;4934309;28;124165;-70
2021/10/11 01:02:54;;;;;;;10.23;5.07;;;;;;;16.77;62.42;102543.94;4936212;28;119099;-70
2021/10/11 01:05:21;;;;;;;13.40;5.60;;;;;;;16.77;62.35;102541.25;4935807;28;119001;-70
2021/10/11 01:07:48;;;;;;;11.82;5.40;;;;;;;16.77;62.22;102543.09;4920466;28;122974;-70
2021/10/11 01:10:15;;;;;;;10.90;5.03;;;;;;;16.76;62.22;102546.69;4933128;28;124212;-70
2021/10/11 01:12:42;;;;;;;10.93;5.03;;;;;;;16.73;62.12;102532.50;4932528;28;119231;-70
2021/10/11 01:15:10;;;;;;;11.45;5.10;;;;;;;16.72;61.99;102540.59;4936950;28;118755;-71
2021/10/11 01:17:37;;;;;;;9.38;4.18;;;;;;;16.69;62.17;102530.91;4933068;28;124759;-71
2021/10/11 01:20:04;;;;;;;7.82;4.00;;;;;;;16.67;61.94;102532.78;4926921;28;124502;-70
2021/10/11 01:22:43;;;;;;;10.85;5.00;;;;;;;16.65;61.99;102533.75;4939408;28;119117;-70
2021/10/11 01:25:15;;;;;;;8.45;3.67;;;;;;;16.62;61.93;102528.56;4927731;28;118805;-70
2021/10/11 01:27:43;;;;;;;7.40;3.63;;;;;;;16.60;61.99;102530.44;4926904;28;123885;-69
2021/10/11 01:30:13;;;;;;;6.40;3.30;;;;;;;16.57;61.75;102525.22;4929958;28;123678;-70
2021/10/11 01:32:42;;;;;;;8.07;3.15;;;;;;;16.53;61.75;102525.34;4933817;28;120830;-70
2021/10/11 01:35:09;;;;;;;8.07;3.45;;;;;;;16.49;61.82;102523.72;4936133;28;119026;-70
2021/10/11 01:37:36;;;;;;;7.00;3.35;;;;;;;16.47;61.61;102520.25;4930323;28;124278;-70
2021/10/11 01:40:06;;;;;;;6.82;3.00;;;;;;;16.45;61.74;102518.59;4940832;28;123658;-70
2021/10/11 01:42:33;;;;;;;8.23;2.88;;;;;;;16.41;61.91;102523.19;4937042;28;119249;-70
2021/10/11 01:45:00;;;;;;;5.53;3.15;;;;;;;16.39;61.72;102521.50;4931778;28;118745;-70
2021/10/11 01:47:28;;;;;;;6.03;3.10;;;;;;;16.34;61.80;102519.03;4936921;28;123494;-70
2021/10/11 01:49:55;;;;;;;7.47;2.85;;;;;;;16.30;61.69;102528.13;4931482;28;124040;-70
2021/10/11 01:52:24;;;;;;;5.72;2.85;;;;;;;16.26;61.70;102531.88;4934999;28;118637;-70
2021/10/11 01:54:52;;;;;;;6.30;2.72;;;;;;;16.22;61.51;102530.25;4933875;28;118795;-70
2021/10/11 01:57:19;;;;;;;7.63;2.97;;;;;;;16.19;61.59;102525.03;4933660;28;124220;-70
2021/10/11 01:59:46;;;;;;;7.13;2.90;;;;;;;16.12;61.59;102525.31;4928749;28;123204;-69
2021/10/11 02:02:13;;;;;;;7.55;3.30;;;;;;;16.09;61.65;102530.78;4931568;28;119221;-69
2021/10/11 02:04:41;;;;;;;10.40;3.30;;;;;;;16.06;61.72;102530.88;4933540;28;118539;-69
2021/10/11 02:07:08;;;;;;;7.05;3.25;;;;;;;16.02;62.02;102534.63;4921264;28;123770;-70
2021/10/11 02:09:35;;;;;;;7.63;3.40;;;;;;;15.99;62.08;102540.06;4917929;28;123845;-70
2021/10/11 02:12:02;;;;;;;8.65;3.70;;;;;;;15.98;61.91;102537.50;4942522;28;119073;-70
2021/10/11 02:14:29;;;;;;;9.98;3.80;;;;;;;15.96;62.12;102545.56;4936589;28;118447;-70
2021/10/11 02:16:58;;;;;;;9.65;4.18;;;;;;;15.96;62.25;102545.56;4940383;28;124051;-69
2021/10/11 02:19:25;;;;;;;7.40;3.50;;;;;;;15.95;62.15;102543.81;4927649;28;124069;-70
2021/10/11 02:21:52;;;;;;;7.18;3.53;;;;;;;15.94;62.21;102547.44;4935463;28;120382;-70
2021/10/11 02:24:19;;;;;;;9.38;3.70;;;;;;;15.93;62.16;102545.69;4930513;28;120755;-70
2021/10/11 02:26:46;;;;;;;7.22;3.55;;;;;;;15.91;62.25;102545.72;4932556;28;124370;-70
2021/10/11 02:29:14;;;;;;;8.15;3.20;;;;;;;15.90;62.39;102546.69;4937186;28;123244;-69
2021/10/11 02:31:41;;;;;;;5.75;3.28;;;;;;;15.91;62.48;102542.19;4931905;28;119695;-70
2021/10/11 02:34:08;;;;;;;9.20;3.20;;;;;;;15.90;62.59;102541.34;4934084;28;119265;-69
2021/10/11 02:36:35;;;;;;;9.35;3.50;;;;;;;15.91;62.81;102536.84;4939234;28;123836;-70
2021/10/11 02:39:03;;;;;;;5.85;3.10;;;;;;;15.91;62.68;102542.19;4943796;28;124735;-70
2021/10/11 02:41:30;;;;;;;8.45;2.67;;;;;;;15.92;62.71;102538.63;4936740;28;119710;-70
2021/10/11 02:43:57;;;;;;;5.47;3.30;;;;;;;15.92;62.65;102533.28;4935671;28;118778;-69
2021/10/11 02:46:25;;;;;;;8.35;3.00;;;;;;;15.92;62.71;102538.63;4932580;28;124331;-70
2021/10/11 02:48:52;;;;;;;6.30;2.90;;;;;;;15.92;62.53;102538.63;4935008;28;123649;-70
2021/10/11 02:51:19;;;;;;;5.53;2.40;;;;;;;15.91;62.90;102536.84;4933221;28;119001;-70
2021/10/11 02:53:49;;;;;;;8.77;2.60;;;;;;;15.91;62.86;102547.53;4935795;23;117902;-70
2021/10/11 02:56:17;;;;;;;6.10;2.33;;;;;;;15.92;62.89;102549.31;4923928;28;124163;-71
2021/10/11 02:58:45;;;;;;;7.65;2.70;;;;;;;15.92;62.86;102543.97;4920986;28;123878;-70
2021/10/11 03:01:14;;;;;;;6.28;2.40;;;;;;;15.92;62.87;102549.31;4917807;28;119520;-70
2021/10/11 03:03:41;;;;;;;6.30;2.35;;;;;;;15.93;62.87;102545.69;4915296;28;118880;-70
2021/10/11 03:06:08;;;;;;;6.22;2.38;;;;;;;15.94;62.79;102544.75;4918930;28;124998;-70
2021/10/11 03:08:36;;;;;;;5.53;2.15;;;;;;;15.95;62.80;102543.81;4920605;28;123939;-70
2021/10/11 03:11:04;;;;;;;9.20;2.60;;;;;;;15.93;62.71;102540.34;4919301;28;120093;-70
2021/10/11 03:13:31;;;;;;;7.90;1.98;;;;;;;15.92;62.72;102538.63;4913341;28;118771;-70
2021/10/11 03:15:58;;;;;;;4.50;2.03;;;;;;;15.91;62.59;102537.72;4921701;28;124789;-70
2021/10/11 03:18:25;;;;;;;5.88;2.65;;;;;;;15.88;62.51;102539.66;4919385;28;124192;-70
2021/10/11 03:20:52;;;;;;;6.55;2.03;;;;;;;15.85;62.41;102535.31;4916119;28;119387;-70
2021/10/11 03:23:23;;;;;;;6.05;2.20;;;;;;;15.84;62.43;102535.34;4914733;28;119118;-70
2021/10/11 03:25:50;;;;;;;6.45;2.17;;;;;;;15.82;62.46;102537.22;4920523;28;123812;-70
2021/10/11 03:28:18;;;;;;;8.27;2.45;;;;;;;15.81;62.27;102540.84;4921059;28;124651;-72
2021/10/11 03:30:47;;;;;;;5.43;1.98;;;;;;;15.76;62.21;102528.53;4920632;28;119366;-70
2021/10/11 03:33:14;;;;;;;6.63;1.98;;;;;;;15.73;62.37;102528.66;4916148;28;118981;-72
2021/10/11 03:35:41;;;;;;;7.20;2.15;;;;;;;15.72;62.39;102521.53;4917394;28;124185;-70
2021/10/11 03:38:08;;;;;;;5.35;2.35;;;;;;;15.70;62.27;102520.72;4913904;28;123918;-70
2021/10/11 03:40:37;;;;;;;8.32;2.20;;;;;;;15.68;62.36;102525.25;4916417;28;120006;-70
2021/10/11 03:43:04;;;;;;;6.05;2.00;;;;;;;15.67;62.23;102518.19;4916478;28;118932;-71
2021/10/11 03:45:31;;;;;;;5.53;2.40;;;;;;;15.65;62.24;102517.38;4915294;28;123881;-71
2021/10/11 03:47:58;;;;;;;4.65;2.17;;;;;;;15.64;62.00;102518.31;4912606;28;123728;-71
2021/10/11 03:50:25;;;;;;;8.30;2.50;;;;;;;15.62;62.33;102512.16;4915817;28;119342;-70
2021/10/11 03:52:52;;;;;;;6.95;2.58;;;;;;;15.61;62.17;102518.41;4918301;28;118862;-70
2021/10/11 03:55:19;;;;;;;7.20;2.35;;;;;;;15.60;62.29;102513.16;4913426;28;123712;-71
2021/10/11 03:57:46;;;;;;;8.15;2.83;;;;;;;15.58;62.37;102513.22;4920492;28;124262;-71
2021/10/11 04:00:14;;;;;;;7.28;2.33;;;;;;;15.57;62.34;102517.66;4915510;28;120274;-70
2021/10/11 04:02:42;;;;;;;5.85;2.08;;;;;;;15.57;62.42;102516.78;4917785;28;119978;-70
2021/10/11 04:05:09;;;;;;;6.07;2.55;;;;;;;15.57;62.21;102516.78;4914186;28;123940;-70
2021/10/11 04:07:39;;;;;;;6.63;2.30;;;;;;;15.55;62.27;102530.19;4916133;28;123758;-70
2021/10/11 04:10:08;;;;;;;8.25;2.75;;;;;;;15.52;62.13;102533.00;4909740;28;118580;-71
2021/10/11 04:12:36;;;;;;;7.53;2.40;;;;;;;15.49;62.14;102530.44;4915647;28;119062;-71
2021/10/11 04:15:06;;;;;;;9.18;2.42;;;;;;;15.47;62.25;102526.97;4918695;28;125198;-70
2021/10/11 04:17:37;;;;;;;6.50;2.28;;;;;;;15.46;62.13;102535.03;4917646;28;123416;-70
2021/10/11 04:20:07;;;;;;;9.15;2.50;;;;;;;15.44;62.10;102526.22;4897703;28;119728;-71
2021/10/11 04:22:35;;;;;;;10.75;2.80;;;;;;;15.41;62.09;102529.00;4920374;28;118894;-71
2021/10/11 04:25:02;;;;;;;9.32;2.30;;;;;;;15.38;61.99;102538.88;4910500;28;123988;-71
2021/10/11 04:27:30;;;;;;;5.10;2.20;;;;;;;15.35;61.87;102539.00;4918970;28;123972;-71
2021/10/11 04:29:57;;;;;;;7.88;2.40;;;;;;;15.31;61.81;102532.03;4916730;28;119624;-71
2021/10/11 04:32:24;;;;;;;4.85;2.20;;;;;;;15.27;61.80;102530.38;4914661;28;119329;-71
2021/10/11 04:34:51;;;;;;;7.82;2.13;;;;;;;15.22;61.76;102537.72;4922397;28;123483;-72
2021/10/11 04:37:18;;;;;;;5.45;2.35;;;;;;;15.19;61.88;102538.69;4914577;28;124550;-70
2021/10/11 04:39:49;;;;;;;5.50;2.08;;;;;;;15.14;61.82;102531.78;4915515;28;119147;-71
2021/10/11 04:42:16;;;;;;;9.27;2.45;;;;;;;15.10;62.08;102538.16;4921717;28;119035;-71
2021/10/11 04:44:43;;;;;;;8.60;2.15;;;;;;;15.07;61.77;102538.25;4911100;28;123498;-72
2021/10/11 04:47:10;;;;;;;6.28;2.38;;;;;;;15.03;61.78;102536.66;4916065;28;124356;-71
2021/10/11 04:49:37;;;;;;;8.63;2.35;;;;;;;14.98;61.76;102545.69;4918808;28;120344;-71
2021/10/11 04:52:04;;;;;;;6.22;2.30;;;;;;;14.95;61.73;102545.78;4915172;28;120016;-71
2021/10/11 04:54:31;;;;;;;5.18;2.17;;;;;;;14.92;61.79;102545.91;4911296;28;123030;-71
2021/10/11 04:56:58;;;;;;;6.35;2.22;;;;;;;14.88;61.65;102538.06;4926785;28;122557;-71
2021/10/11 04:59:25;;;;;;;8.70;2.50;;;;;;;14.86;61.86;102545.25;4920377;28;118073;-72
2021/10/11 05:01:53;;;;;;;5.20;2.30;;;;;;;14.82;61.71;102538.28;4916918;28;119631;-72
2021/10/11 05:04:20;;;;;;;7.93;2.60;;;;;;;14.78;61.75;102540.19;4915860;28;123899;-72
2021/10/11 05:06:47;;;;;;;9.57;2.58;;;;;;;14.75;61.89;102543.00;4915212;28;124259;-73
2021/10/11 05:09:14;;;;;;;5.55;2.22;;;;;;;14.71;61.83;102546.66;4910622;28;119661;-72
2021/10/11 05:11:42;;;;;;;10.57;2.40;;;;;;;14.68;61.69;102546.78;4922932;28;119324;-71
2021/10/11 05:14:09;;;;;;;5.63;2.20;;;;;;;14.63;61.69;102544.28;4904342;28;123269;-71
2021/10/11 05:16:37;;;;;;;9.30;2.80;;;;;;;14.60;61.66;102549.72;4919835;28;124196;-72
2021/10/11 05:19:04;;;;;;;5.68;2.90;;;;;;;14.56;61.66;102542.69;4907318;28;118312;-71
2021/10/11 05:21:31;;;;;;;7.60;2.60;;;;;;;14.52;61.63;102541.97;4899558;28;118931;-72
2021/10/11 05:23:58;;;;;;;5.90;2.42;;;;;;;14.48;61.85;102540.31;4922733;28;123900;-71
2021/10/11 05:26:27;;;;;;;10.85;2.97;;;;;;;14.44;61.73;102538.66;4917030;28;123793;-71
2021/10/11 05:28:54;;;;;;;7.57;2.70;;;;;;;14.41;61.81;102538.78;4922549;28;119770;-71
2021/10/11 05:31:21;;;;;;;6.90;2.50;;;;;;;14.39;61.84;102535.28;4920177;28;119273;-71
2021/10/11 05:33:48;;;;;;;5.78;2.40;;;;;;;14.36;61.80;102535.41;4920594;28;123996;-71
2021/10/11 05:36:15;;;;;;;6.72;2.78;;;;;;;14.33;62.07;102527.50;4926674;28;124058;-71
2021/10/11 05:38:43;;;;;;;5.00;2.17;;;;;;;14.29;61.68;102539.19;4919330;28;120107;-71
2021/10/11 05:41:10;;;;;;;5.65;2.60;;;;;;;14.27;61.64;102538.38;4929385;28;120274;-71
2021/10/11 05:43:37;;;;;;;5.40;2.38;;;;;;;14.23;61.72;102534.94;4930749;28;123342;-69
2021/10/11 05:46:04;;;;;;;4.03;2.30;;;;;;;14.18;61.58;102537.78;4922799;28;124292;-69
2021/10/11 05:48:36;;;;;;;8.45;3.28;;;;;;;14.13;61.66;102545.03;4918493;28;119099;-69
2021/10/11 05:51:03;;;;;;;8.80;3.03;;;;;;;14.08;61.66;102541.63;4921287;28;118972;-69
2021/10/11 05:53:30;;;;;;;7.60;3.13;;;;;;;14.04;61.62;102545.34;4919079;28;123069;-69
2021/10/11 05:55:57;;;;;;;10.32;3.67;;;;;;;13.97;61.76;102549.97;4924682;28;124212;-69
2021/10/11 05:58:24;;;;;;;9.85;3.58;;;;;;;13.94;61.88;102543.91;4925352;28;119402;-69
2021/10/11 06:00:52;;;;;;;9.13;3.50;;;;;;;13.90;61.85;102552.88;4918482;28;119290;-69
2021/10/11 06:03:19;;;;;;;8.63;3.88;;;;;;;13.86;61.85;102540.59;4923061;28;123098;-69
2021/10/11 06:05:46;;;;;;;10.27;3.22;;;;;;;13.82;62.06;102548.69;4921542;28;124043;-70
2021/10/11 06:08:15;;;;;;;12.40;3.17;;;;;;;13.79;61.97;102558.56;4922919;28;118644;-69
2021/10/11 06:10:42;;;;;;;7.10;2.83;;;;;;;13.77;61.96;102557.75;4916202;28;118641;-71
2021/10/11 06:13:09;;;;;;;7.25;3.00;;;;;;;13.74;61.95;102553.38;4917442;28;123855;-68
2021/10/11 06:15:36;;;;;;;7.95;3.20;;;;;;;13.73;61.93;102562.28;4923272;28;123882;-68
2021/10/11 06:18:04;;;;;;;8.07;2.78;;;;;;;13.72;61.91;102559.66;4918853;28;119633;-69
2021/10/11 06:20:33;;;;;;;7.88;2.78;;;;;;;13.68;61.88;102566.88;4918719;28;118956;-69
2021/10/11 06:23:00;;;;;;;4.80;2.42;;;;;;;13.66;61.99;102570.50;4923231;28;124280;-68
2021/10/11 06:25:27;;;;;;;10.45;2.97;;;;;;;13.63;62.03;102576.78;4918467;28;123696;-69
2021/10/11 06:27:54;;;;;;;7.45;2.80;;;;;;;13.61;62.21;102568.84;4926917;28;120303;-69
2021/10/11 06:30:22;;;;;;;5.45;2.63;;;;;;;13.62;62.25;102581.25;4910057;28;120503;-69
2021/10/11 06:32:49;;;;;;;7.97;3.28;;;;;;;13.62;62.40;102569.72;4917018;28;123909;-69
2021/10/11 06:35:16;;;;;;;9.60;3.60;;;;;;;13.63;62.67;102571.47;4920995;28;123939;-69
2021/10/11 06:37:51;;;;;;;11.13;3.22;;;;;;;13.66;62.71;102565.19;4904936;28;118785;-69
2021/10/11 06:40:18;;;;;;;10.25;4.22;;;;;;;13.69;62.75;102570.41;4919403;28;119381;-68
2021/10/11 06:43:05;;;;;;;11.07;4.65;;;;;;;13.71;62.72;102569.47;4919648;28;124346;-70
2021/10/11 06:45:32;;;;;;;11.95;5.22;;;;;;;13.76;62.83;102582.63;4923415;28;124665;-70
2021/10/11 06:48:00;;;;;;;15.07;5.35;;;;;;;13.79;62.97;102572.75;4919592;28;119328;-70
2021/10/11 06:50:27;;;;;;;10.80;5.60;;;;;;;13.83;62.98;102579.72;4898141;28;117740;-70
2021/10/11 06:52:54;;;;;;;14.55;6.07;;;;;;;13.88;62.95;102582.25;4921757;28;123893;-70
2021/10/11 06:55:21;;;;;;;12.23;5.70;;;;;;;13.93;63.00;102579.44;4916516;28;123601;-69
2021/10/11 06:57:48;;;;;;;9.13;4.15;;;;;;;13.96;62.96;102584.69;4917614;28;119403;-70
2021/10/11 07:00:15;;;;;;;8.60;3.88;;;;;;;14.00;62.90;102586.31;4917746;28;119755;-70
2021/10/11 07:02:43;;;;;;;9.65;3.63;;;;;;;14.03;63.12;102586.19;4917941;28;125210;-70
2021/10/11 07:05:11;;;;;;;9.20;3.55;;;;;;;14.08;63.00;102588.75;4918465;28;124046;-70
2021/10/11 07:07:41;;;;;;;9.20;3.55;;;;;;;14.11;62.96;102584.19;4915769;28;118858;-70
2021/10/11 07:10:09;;;;;;;11.23;3.97;;;;;;;14.13;63.13;102587.66;4917804;28;118946;-70
2021/10/11 07:12:37;;;;;;;9.85;3.65;;;;;;;14.18;63.03;102592.84;4914151;28;124487;-70
2021/10/11 07:15:20;;;;;;;7.00;3.05;;;;;;;14.21;63.05;102590.94;4917802;28;123156;-70
2021/10/11 07:17:47;;;;;;;10.40;3.25;;;;;;;14.24;63.09;102578.44;4917364;28;120190;-70
2021/10/11 07:20:17;;;;;;;7.60;3.13;;;;;;;14.27;63.12;102589.00;4924544;28;121649;-70
2021/10/11 07:22:45;;;;;;;7.78;3.20;;;;;;;14.32;63.15;102592.41;4922894;28;124219;-70
2021/10/11 07:25:12;;;;;;;11.15;3.08;;;;;;;14.36;63.12;102588.72;4915723;28;124162;-71
2021/10/11 07:27:39;;;;;;;7.82;3.08;;;;;;;14.41;63.20;102592.97;4914483;28;120327;-70
2021/10/11 07:30:07;;;;;;;8.52;3.40;;;;;;;14.46;63.08;102605.28;4926951;28;118833;-70
2021/10/11 07:32:34;;;;;;;9.18;3.53;;;;;;;14.50;63.26;102607.78;4928349;28;122865;-71
2021/10/11 07:35:01;;;;;;;8.43;3.33;;;;;;;14.54;63.30;102612.09;4917763;28;122585;-70
2021/10/11 07:37:29;;;;;;;7.38;3.25;;;;;;;14.59;63.30;102612.84;4920427;28;120118;-71
2021/10/11 07:39:56;;;;;;;8.43;3.15;;;;;;;14.66;63.39;102612.66;4916260;28;118750;-71
2021/10/11 07:42:23;;;;;;;7.70;3.30;;;;;;;14.71;63.38;102616.00;4929583;28;124626;-71
2021/10/11 07:44:50;;;;;;;10.23;3.45;;;;;;;14.77;63.34;102615.81;4914342;28;123841;-70
2021/10/11 07:47:17;;;;;;;8.23;3.22;;;;;;;14.81;63.21;102622.78;4911235;28;120177;-71
2021/10/11 07:49:44;;;;;;;11.45;3.60;;;;;;;14.88;63.24;102629.66;4923977;28;119241;-71
2021/10/11 07:52:11;;;;;;;8.85;3.22;;;;;;;14.92;63.24;102625.97;4912932;28;124120;-71
2021/10/11 07:54:39;;;;;;;10.30;3.22;;;;;;;14.96;63.13;102629.41;4910721;28;123837;-71
2021/10/11 07:57:06;;;;;;;7.28;2.90;;;;;;;15.02;63.21;102625.66;4927675;28;119551;-71
2021/10/11 07:59:33;;;;;;;7.10;3.13;;;;;;;15.07;63.18;102634.34;4926904;28;119069;-71
2021/10/11 08:02:00;;;;;;;5.38;2.70;;;;;;;15.11;63.10;102630.66;4925341;28;124202;-71
2021/10/11 08:04:27;;;;;;;10.10;3.20;;;;;;;15.16;63.13;102631.34;4910018;28;123051;-71
2021/10/11 08:06:55;;;;;;;8.65;2.78;;;;;;;15.21;63.06;102640.06;4912795;28;119007;-71
2021/10/11 08:09:22;;;;;;;8.30;2.90;;;;;;;15.26;63.07;102638.13;4926053;28;120408;-71
2021/10/11 08:11:50;;;;;;;7.53;2.78;;;;;;;15.30;62.98;102636.22;4920660;28;124070;-70
2021/10/11 08:14:17;;;;;;;9.80;3.25;;;;;;;15.37;62.86;102643.06;4927147;28;124702;-70
2021/10/11 08:16:45;;;;;;;9.45;3.28;;;;;;;15.43;62.78;102647.31;4927117;28;119515;-70
2021/10/11 08:19:13;;;;;;;8.55;3.22;;;;;;;15.46;62.85;102642.72;4924754;28;118551;-72
2021/10/11 08:21:41;;;;;;;9.05;3.20;;;;;;;15.52;62.88;102641.59;4919771;28;123870;-70
2021/10/11 08:24:08;;;;;;;9.00;3.38;;;;;;;15.56;62.72;102632.59;4917228;28;122880;-70
2021/10/11 08:26:36;;;;;;;8.90;2.88;;;;;;;15.61;62.60;102635.94;4905104;28;118546;-69
2021/10/11 08:29:04;;;;;;;7.15;2.53;;;;;;;15.66;62.75;102638.44;4919232;28;118737;-69
2021/10/11 08:31:34;;;;;;;6.88;2.72;;;;;;;15.70;62.49;102634.72;4915084;28;124670;-69
2021/10/11 08:34:02;;;;;;;8.80;2.88;;;;;;;15.73;62.63;102635.50;4921521;28;124722;-72
2021/10/11 08:36:30;;;;;;;8.15;2.75;;;;;;;15.79;62.59;102644.22;4920158;28;119418;-71
2021/10/11 08:38:58;;;;;;;7.55;2.65;;;;;;;15.84;62.68;102648.47;4915592;28;119111;-70
2021/10/11 08:41:25;;;;;;;7.95;2.67;;;;;;;15.90;62.56;102652.72;4919541;28;123978;-70
2021/10/11 08:43:53;;;;;;;7.80;2.22;;;;;;;15.93;62.43;102642.75;4920703;28;123949;-70
2021/10/11 08:46:20;;;;;;;10.82;2.00;;;;;;;15.99;62.40;102646.97;4915886;28;119358;-70
2021/10/11 08:48:47;;;;;;;5.72;2.33;;;;;;;16.03;62.25;102653.09;4919125;28;119867;-70
2021/10/11 08:51:15;;;;;;;6.22;2.20;;;;;;;16.05;62.18;102652.09;4914931;28;123106;-70
2021/10/11 08:53:42;;;;;;;7.32;2.10;;;;;;;16.07;62.21;102650.25;4913331;28;124693;-69
2021/10/11 08:56:13;;;;;;;6.70;2.55;;;;;;;16.10;62.06;102647.44;4913146;28;120165;-69
2021/10/11 08:58:48;;;;;;;9.07;2.10;;;;;;;16.15;62.09;102642.78;4921070;28;119758;-69
2021/10/11 09:01:19;;;;;;;;;;;;;;;16.18;62.10;102651.59;4919441;28;124464;-68
2021/10/11 09:03:47;;;;;;;7.45;2.10;;;;;;;16.20;62.05;102645.28;4923807;28;124240;-69
2021/10/11 09:06:16;;;;;;;7.18;2.13;;;;;;;16.24;61.74;102640.69;4924655;28;119357;-69
2021/10/11 09:08:43;;;;;;;7.15;2.00;;;;;;;16.28;61.93;102642.31;4916332;28;119058;-69
2021/10/11 09:11:13;;;;;;;5.97;2.17;;;;;;;16.34;62.02;102647.41;4918339;28;123850;-69
2021/10/11 09:13:48;;;;;;;6.88;2.10;;;;;;;16.39;62.16;102645.41;4919990;28;124461;-69
2021/10/11 09:19:12;;;;;;;5.28;1.85;;;;;;;16.50;61.87;102637.81;4928689;28;119132;-69
2021/10/11 09:21:39;;;;;;;5.22;2.13;;;;;;;16.55;62.03;102641.16;4929377;28;124052;-68
2021/10/11 09:24:08;;;;;;;7.75;1.98;;;;;;;16.61;61.81;102644.50;4930006;28;124119;-68
2021/10/11 09:26:53;;;;;;;8.27;2.10;;;;;;;16.66;61.66;102642.53;4928821;28;119614;-68
2021/10/11 09:29:35;;;;;;;6.87;2.33;;;;;;;16.70;61.73;102644.13;4922347;28;122568;-68
2021/10/11 09:32:08;;;;;;;10.25;2.42;;;;;;;16.74;61.82;102640.38;4922090;28;124346;-69
2021/10/11 09:34:40;;;;;;;7.38;2.20;;;;;;;16.81;61.77;102641.88;4914553;28;124358;-68
2021/10/11 09:37:13;;;;;;;6.18;2.08;;;;;;;16.87;61.65;102641.63;4930068;28;120026;-68
2021/10/11 09:39:41;;;;;;;8.38;2.30;;;;;;;16.93;61.55;102644.06;4921489;28;119093;-68
2021/10/11 09:42:14;;;;;;;7.18;2.35;;;;;;;17.01;61.49;102648.19;4924573;28;124698;-68
2021/10/11 09:44:54;;;;;;;5.40;2.17;;;;;;;17.09;61.49;102640.72;4919021;28;123991;-68
2021/10/11 09:47:27;;;;;;;8.40;2.28;;;;;;;17.15;61.61;102640.44;4927026;28;120217;-68
2021/10/11 09:49:54;;;;;;;7.63;2.17;;;;;;;17.22;61.25;102641.94;4926351;28;119749;-68
2021/10/11 09:52:23;;;;;;;6.18;2.03;;;;;;;17.31;61.37;102646.88;4909456;28;123417;-68
2021/10/11 09:54:51;;;;;;;4.88;2.15;;;;;;;17.39;61.27;102643.00;4914362;28;123829;-68
2021/10/11 09:57:19;;;;;;;4.78;2.28;;;;;;;17.46;61.19;102652.47;4917292;28;118126;-68
2021/10/11 09:59:46;;;;;;;6.20;1.95;;;;;;;17.51;60.89;102647.78;4913514;28;119158;-68
2021/10/11 10:02:17;;;;;;;10.15;2.63;;;;;;;17.53;60.50;102651.25;4915911;28;124737;-68
2021/10/11 10:04:45;;;;;;;8.10;2.35;;;;;;;17.56;60.56;102653.81;4923780;28;124684;-68
2021/10/11 10:07:15;;;;;;;8.60;2.05;;;;;;;17.60;60.51;102658.06;4928252;28;119278;-68
2021/10/11 10:09:48;;;;;;;5.70;2.05;;;;;;;17.66;60.86;102652.44;4920361;28;118961;-68
2021/10/11 10:12:15;;;;;;;9.48;2.17;;;;;;;17.71;60.32;102645.06;4927769;28;124739;-68
2021/10/11 10:14:43;;;;;;;5.78;2.13;;;;;;;17.77;60.49;102637.69;4929484;28;123908;-68
2021/10/11 10:17:10;;;;;;;6.18;1.95;;;;;;;17.82;60.51;102641.00;4930137;28;120936;-68
2021/10/11 10:19:40;;;;;;;5.38;2.00;;;;;;;17.88;60.15;102640.75;4923094;28;119370;-68
2021/10/11 10:22:17;;;;;;;10.50;2.30;;;;;;;17.93;60.26;102648.56;4923275;28;123925;-68
2021/10/11 10:24:44;;;;;;;4.90;1.98;;;;;;;17.97;60.16;102651.03;4911216;28;123626;-68
2021/10/11 10:27:13;;;;;;;5.28;1.90;;;;;;;17.99;60.04;102643.81;4920067;28;119281;-68
2021/10/11 10:29:48;;;;;;;7.47;2.20;;;;;;;18.02;59.90;102654.34;4913020;28;119296;-68
2021/10/11 10:32:19;;;;;;;10.02;2.13;;;;;;;18.08;59.96;102648.72;4915798;28;124095;-69
2021/10/11 10:35:00;;;;;;;8.38;2.03;;;;;;;18.13;60.01;102639.59;4922635;28;124934;-68
2021/10/11 10:37:36;;;;;;;6.35;2.63;;;;;;;18.19;59.78;102644.63;4923039;28;120430;-68
2021/10/11 10:40:13;;;;;;;5.20;2.03;;;;;;;18.24;59.74;102642.63;4921349;28;119774;-68
2021/10/11 10:42:41;;;;;;;5.97;1.90;;;;;;;18.28;59.53;102641.50;4919547;28;123922;-68
2021/10/11 10:45:20;;;;;;;5.32;1.73;;;;;;;18.31;59.32;102644.06;4921345;28;124677;-68
2021/10/11 10:47:50;;;;;;;6.60;1.83;;;;;;;18.34;59.24;102638.53;4926374;28;119308;-69
2021/10/11 10:50:20;;;;;;;11.18;2.13;;;;;;;18.36;59.14;102642.00;4929216;28;119190;-68
2021/10/11 10:52:59;;;;;;;12.85;2.30;;;;;;;18.37;59.29;102627.66;4925028;28;123960;-68
2021/10/11 10:55:26;;;;;;;4.45;1.88;;;;;;;18.40;59.01;102635.56;4922506;28;123752;-68
2021/10/11 10:58:02;;;;;;;5.40;2.13;;;;;;;18.44;59.25;102645.19;4917890;28;118564;-68
2021/10/11 11:00:29;;;;;;;7.28;1.98;;;;;;;18.49;59.17;102643.13;4912577;28;119087;-68
2021/10/11 11:02:57;;;;;;;7.35;2.05;;;;;;;18.55;59.22;102641.09;4919498;28;124243;-69
2021/10/11 11:05:27;;;;;;;5.25;2.40;;;;;;;18.61;59.01;102646.13;4921235;28;124720;-67
2021/10/11 11:07:56;;;;;;;7.18;2.03;;;;;;;18.65;58.99;102647.75;4914455;28;119973;-68
2021/10/11 11:10:30;;;;;;;8.30;2.00;;;;;;;18.69;58.91;102633.22;4916737;28;119219;-67
2021/10/11 11:12:59;;;;;;;9.35;1.90;;;;;;;18.75;58.86;102638.28;4912639;28;124601;-67
2021/10/11 11:15:34;;;;;;;7.55;1.75;;;;;;;18.80;58.70;102641.63;4920634;28;123758;-68
2021/10/11 11:18:13;;;;;;;5.80;2.00;;;;;;;18.82;58.60;102634.38;4917682;28;119636;-67
2021/10/11 11:20:42;;;;;;;6.80;1.80;;;;;;;18.85;58.59;102626.16;4920050;28;119109;-67
2021/10/11 11:23:12;;;;;;;7.65;2.30;;;;;;;18.89;58.46;102629.53;4926117;28;124218;-67
2021/10/11 11:25:44;;;;;;;7.68;2.00;;;;;;;18.94;58.39;102621.25;4925040;28;123938;-67